Toronto, Ohio
Current Conditions -  °F | °C
As of 5:53 PM on Wednesday 22 Oct 2014 (Local Time) from KHLG Reporting Station
Overcast Overcast  
Wind Chill: 44°   Ceiling: 2300
Heat Index: 48°   Visibility: 10mi
Dew Point: 41°   Wind: 9mph
Humidity: 77%   Direction: 320°NW
Pressure: 30.18"   Gusts: NA
Location:  40.46°N, 80.61°W
Report Text: KHLG 222153Z 32008KT 10SM OVC023 09/05 A3018 RMK AO2 SLP225 T00890050
Loading
Personal Weather Stations






























Interactive Weather Map New forecast layout! Learn more

10-Day Weather Forecast

Advertisements
Track Severe Weather on mobile